Flight Track Log - Related Links

Times and Time Zones

All times are in EDT time to prevent confusion due to time zone crossing. See the SKW6470 flight status page for this flight to view local times or setup timezone preferences in your user account.

Time Position Orientation Groundspeed Altitude Reporting Facility
EDT Latitude Longitude Course Direction KTS MPH feet Rate Location/Type
Sat 12:36:15 AM 35.7234 -116.8738 36° Northeast  Level Estimated
Sat 12:37:15 AM 35.7964 -116.8090 36° Northeast  Level Estimated
Sat 12:38:15 AM 35.8694 -116.7442 36° Northeast  Level Estimated
Sat 12:39:15 AM 35.9423 -116.6792 36° Northeast  Level Estimated
Sat 12:40:15 AM 36.0152 -116.6142 36° Northeast  Level Estimated
Sat 12:41:15 AM 36.0881 -116.5490 36° Northeast  Level Estimated
Sat 12:42:15 AM 36.1609 -116.4836 36° Northeast  Level Estimated
Sat 12:43:15 AM 36.2337 -116.4182 36° Northeast  Level Estimated
Sat 12:44:15 AM 36.3065 -116.3526 36° Northeast  Level Estimated
Sat 12:45:15 AM 36.3792 -116.2869 36° Northeast  Level Estimated
Sat 12:46:15 AM 36.4519 -116.2211 36° Northeast  Level Estimated
Sat 12:47:15 AM 36.5246 -116.1552 36° Northeast  Level Estimated
Sat 12:48:15 AM 36.5972 -116.0891 36° Northeast  Level Estimated
Sat 12:49:15 AM 36.6698 -116.0230 36° Northeast  Level Estimated
Sat 12:50:15 AM 36.7424 -115.9566 36° Northeast  Level Estimated
Sat 12:51:15 AM 36.8149 -115.8902 36° Northeast  Level Estimated
Sat 12:52:15 AM 36.8873 -115.8237 36° Northeast  Level Estimated
Sat 12:53:15 AM 36.9598 -115.7570 36° Northeast  Level Estimated
Sat 12:54:15 AM 37.0322 -115.6902 36° Northeast  Level Estimated
Sat 12:55:15 AM 37.1045 -115.6232 36° Northeast  Level Estimated
Sat 12:56:15 AM 37.1769 -115.5562 36° Northeast  Level Estimated
Sat 12:57:15 AM 37.2492 -115.4890 37° Northeast  Level Estimated
Sat 12:58:15 AM 37.3214 -115.4216 37° Northeast  Level Estimated
Sat 12:59:15 AM 37.3936 -115.3542 37° Northeast  Level Estimated
Sat 01:00:15 AM 37.4658 -115.2866 37° Northeast  Level Estimated
Sat 01:01:15 AM 37.5379 -115.2189 37° Northeast  Level Estimated
Sat 01:02:15 AM 37.6101 -115.1510 37° Northeast  Level Estimated
Sat 01:03:15 AM 37.6821 -115.0831 37° Northeast  Level Estimated
Sat 01:04:15 AM 37.7541 -115.0149 37° Northeast  Level Estimated
Sat 01:05:15 AM 37.8261 -114.9467 37° Northeast  Level Estimated
Sat 01:06:15 AM 37.8980 -114.8783 37° Northeast  Level Estimated
Sat 01:07:15 AM 37.9700 -114.8098 37° Northeast  Level Estimated
Sat 01:08:15 AM 38.0418 -114.7412 37° Northeast  Level Estimated
Sat 01:09:15 AM 38.1136 -114.6724 37° Northeast  Level Estimated
Sat 01:10:15 AM 38.1854 -114.6035 37° Northeast  Level Estimated
Sat 01:11:15 AM 38.2571 -114.5344 37° Northeast  Level Estimated
Sat 01:12:15 AM 38.3288 -114.4652 37° Northeast  Level Estimated
Sat 01:13:15 AM 38.4005 -114.3959 37° Northeast  Level Estimated
Sat 01:14:15 AM 38.4721 -114.3265 37° Northeast  Level Estimated
Sat 01:15:15 AM 38.5437 -114.2569 37° Northeast  Level Estimated
Sat 01:16:15 AM 38.6152 -114.1871 37° Northeast  Level Estimated
Sat 01:17:15 AM 38.6867 -114.1173 37° Northeast  Level Estimated
Sat 01:18:15 AM 38.7582 -114.0472 37° Northeast  Level Estimated
Sat 01:19:15 AM 38.8296 -113.9771 37° Northeast  Level Estimated
Sat 01:20:15 AM 38.9010 -113.9068 38° Northeast  Level Estimated
Sat 01:21:15 AM 38.9723 -113.8363 38° Northeast  Level Estimated
Sat 01:22:15 AM 39.0436 -113.7658 38° Northeast  Level Estimated
Sat 01:23:15 AM 39.1148 -113.6951 38° Northeast  Level Estimated
Sat 01:24:15 AM 39.1860 -113.6242 38° Northeast  Level Estimated
Sat 01:25:15 AM 39.2572 -113.5532 38° Northeast  Level Estimated
Sat 01:26:15 AM 39.3283 -113.4820 38° Northeast  Level Estimated
Sat 01:27:15 AM 39.3994 -113.4107 38° Northeast  Level Estimated
Sat 01:28:15 AM 39.4704 -113.3393 38° Northeast  Level Estimated
Sat 01:29:15 AM 39.5414 -113.2677 38° Northeast  Level Estimated
Sat 01:30:15 AM 39.6123 -113.1960 38° Northeast  Level Estimated
Sat 01:31:15 AM 39.6832 -113.1241 38° Northeast  Level Estimated
Sat 01:32:15 AM 39.7541 -113.0520 38° Northeast  Level Estimated
Sat 01:33:15 AM 39.8249 -112.9799 38° Northeast  Level Estimated
Sat 01:34:15 AM 39.8956 -112.9075 38° Northeast  Level Estimated
Sat 01:35:15 AM 39.9663 -112.8351 38° Northeast  Level Estimated
Sat 01:36:15 AM 40.0370 -112.7624 38° Northeast  Level Estimated
Sat 01:37:15 AM 40.1076 -112.6897 38° Northeast  Level Estimated
Sat 01:38:15 AM 40.1782 -112.6167 38° Northeast  Level Estimated
Sat 01:39:15 AM 40.2487 -112.5436 38° Northeast  Level Estimated
Sat 01:40:15 AM 40.3192 -112.4704 38° Northeast  Level Estimated
Sat 01:41:15 AM 40.3897 -112.3970 38° Northeast  Level Estimated
Sat 01:42:15 AM 40.4600 -112.3235 39° Northeast  Level Estimated
Sat 01:43:15 AM 40.5304 -112.2498 39° Northeast  Level Estimated
Sat 01:44:15 AM 40.6007 -112.1759 39° Northeast  Level Estimated
Sat 01:45:15 AM 40.6710 -112.1019 39° Northeast  Level Estimated
Sat 01:46:15 AM 40.7412 -112.0278 39° Northeast  Level Estimated
Sat 01:47:15 AM 40.8113 -111.9535 219° Southwest  Level Estimated
Sat 01:48:15 AM 40.7412 -112.0278 39° Northeast  Level Estimated
Sat 01:49:15 AM 40.8113 -111.9535 219° Southwest  Level Estimated
Sat 01:50:15 AM 40.7412 -112.0278 39° Northeast  Level Estimated
Sat 01:51:15 AM 40.8113 -111.9535 39° Northeast  Level Estimated

Login

Don't have an account? Register now (free) for customized features, flight alerts, and more!